Time;durP1;ratioP1;P1;durP2;ratioP2;P2;SDS_P1;SDS_P2;PMS_P1;PMS_P2;Temp;Humidity;BMP_temperature;BMP_pressure;BME280_temperature;BME280_humidity;BME280_pressure;Samples;Min_cycle;Max_cycle;Signal;HPM_P1;HPM_P2
2021/06/15 00:00:15;;;;;;;24.45;15.90;;;;;;;11.97;73.83;99316.19;124792;1093;64279;-80
2021/06/15 00:03:02;;;;;;;24.70;18.35;;;;;;;11.97;74.14;99318.86;124817;1093;64670;-83
2021/06/15 00:05:30;;;;;;;29.83;19.17;;;;;;;11.97;74.11;99322.38;124850;1092;64300;-82
2021/06/15 00:07:58;;;;;;;28.75;19.05;;;;;;;11.99;74.16;99327.63;124838;1093;64186;-83
2021/06/15 00:10:28;;;;;;;25.03;17.90;;;;;;;11.96;74.09;99327.84;124832;1093;64281;-82
2021/06/15 00:12:56;;;;;;;28.53;19.87;;;;;;;11.90;74.03;99322.89;124866;1093;64370;-82
2021/06/15 00:15:25;;;;;;;22.60;17.77;;;;;;;11.88;74.20;99320.34;124776;1093;64191;-84
2021/06/15 00:17:54;;;;;;;26.27;16.67;;;;;;;11.85;74.51;99318.70;124753;1093;64191;-83
2021/06/15 00:20:23;;;;;;;24.80;15.70;;;;;;;11.79;74.33;99319.09;124764;1093;64309;-82
2021/06/15 00:22:50;;;;;;;21.97;14.67;;;;;;;11.76;74.66;99318.45;124707;1093;64287;-82
2021/06/15 00:25:18;;;;;;;23.70;16.33;;;;;;;11.74;74.72;99310.56;124733;1093;64379;-82
2021/06/15 00:27:49;;;;;;;22.97;15.73;;;;;;;11.72;74.70;99317.81;124725;1093;64377;-82
2021/06/15 00:30:18;;;;;;;18.00;14.00;;;;;;;11.65;74.70;99313.83;124770;1093;64313;-80
2021/06/15 00:32:48;;;;;;;19.87;15.97;;;;;;;11.61;74.86;99310.52;124802;1093;64194;-80
2021/06/15 00:35:15;;;;;;;;;;;;;;;11.58;74.93;99307.17;124838;1093;64291;-81
2021/06/15 00:37:45;;;;;;;24.30;17.75;;;;;;;11.51;74.94;99309.41;124778;1092;64375;-81
2021/06/15 00:40:12;;;;;;;32.60;19.63;;;;;;;11.43;74.98;99298.38;124739;1093;64194;-81
2021/06/15 00:42:40;;;;;;;52.10;25.40;;;;;;;11.38;75.12;99303.16;124756;1093;64222;-82
2021/06/15 00:45:09;;;;;;;44.43;24.23;;;;;;;11.35;75.38;99306.88;124765;1093;64290;-81
2021/06/15 00:47:37;;;;;;;61.80;27.93;;;;;;;11.33;75.48;99302.60;124825;1093;64319;-82
2021/06/15 00:50:05;;;;;;;48.73;25.43;;;;;;;11.28;75.57;99308.23;124771;1093;64412;-82
2021/06/15 00:52:33;;;;;;;40.83;22.70;;;;;;;11.25;75.76;99308.44;124768;1093;64274;-81
2021/06/15 00:55:02;;;;;;;42.70;21.35;;;;;;;11.24;75.81;99308.52;124723;1093;64290;-81
2021/06/15 00:57:30;;;;;;;34.50;19.65;;;;;;;11.25;75.90;99308.44;124764;1093;64306;-81
2021/06/15 00:59:57;;;;;;;35.43;20.00;;;;;;;11.26;76.10;99306.61;124770;1093;64411;-81
2021/06/15 01:02:27;;;;;;;30.25;18.65;;;;;;;11.28;75.74;99305.56;124728;1093;64398;-81
2021/06/15 01:04:55;;;;;;;;;;;;;;;11.25;75.82;99307.59;124788;1092;64338;-83
2021/06/15 01:08:03;;;;;;;23.33;15.10;;;;;;;11.23;75.77;99304.16;124763;1093;64274;-80
2021/06/15 01:10:36;;;;;;;32.17;18.90;;;;;;;11.10;75.48;99301.41;124787;1093;64260;-81
2021/06/15 01:13:12;;;;;;;31.27;19.30;;;;;;;11.03;75.74;99300.94;124758;1093;64415;-80
2021/06/15 01:15:58;;;;;;;26.87;17.70;;;;;;;10.99;75.92;99302.10;124796;1093;64437;-81
2021/06/15 01:18:29;;;;;;;28.40;18.53;;;;;;;10.95;75.89;99301.45;124743;1093;64287;-81
2021/06/15 01:21:01;;;;;;;28.70;18.23;;;;;;;10.90;76.04;99298.22;124793;1093;64281;-82
2021/06/15 01:23:50;;;;;;;29.33;18.03;;;;;;;10.84;76.16;99289.73;124759;1093;64198;-81
2021/06/15 01:26:56;;;;;;;25.08;16.85;;;;;;;10.80;76.22;99286.42;124743;1093;64279;-81
2021/06/15 01:29:33;;;;;;;25.00;17.07;;;;;;;10.78;76.42;99293.66;124811;1093;64278;-82
2021/06/15 01:32:15;;;;;;;19.87;14.93;;;;;;;10.86;76.83;99293.17;124768;1093;64251;-81
2021/06/15 01:34:44;;;;;;;21.97;15.63;;;;;;;10.83;76.53;99294.22;124747;1093;64194;-82
2021/06/15 01:37:29;;;;;;;21.55;14.60;;;;;;;10.82;76.42;99289.86;124857;1093;64339;-82
2021/06/15 01:40:16;;;;;;;22.43;16.07;;;;;;;10.80;76.59;99282.91;124799;1093;64317;-83
2021/06/15 01:42:56;;;;;;;20.97;15.63;;;;;;;10.78;76.51;99285.66;124780;1092;64537;-82
2021/06/15 01:45:45;;;;;;;24.80;16.40;;;;;;;10.75;76.75;99284.04;124796;1093;64296;-82
2021/06/15 01:48:48;;;;;;;20.98;16.53;;;;;;;10.66;76.89;99289.08;124763;1093;64267;-82
2021/06/15 01:51:18;;;;;;;24.23;16.67;;;;;;;10.66;77.21;99281.08;124572;1093;64345;-81
2021/06/15 01:54:11;;;;;;;20.70;18.00;;;;;;;10.68;77.27;99282.70;124730;1093;64424;-82
2021/06/15 01:56:41;;;;;;;18.65;14.85;;;;;;;10.65;77.01;99279.38;124798;1093;64320;-82
2021/06/15 01:59:12;;;;;;;18.20;14.77;;;;;;;10.60;76.89;99289.47;124851;1093;64276;-81
2021/06/15 02:01:44;;;;;;;22.60;17.13;;;;;;;10.57;76.91;99284.34;124811;1093;64267;-82
2021/06/15 02:04:12;;;;;;;20.47;15.80;;;;;;;10.54;76.82;99280.05;124798;1093;65366;-82
2021/06/15 02:06:47;;;;;;;18.53;16.43;;;;;;;10.49;76.70;99290.14;124760;1093;64300;-81
2021/06/15 02:09:17;;;;;;;21.50;17.05;;;;;;;10.45;77.06;99281.49;124748;1093;64374;-83
2021/06/15 02:11:45;;;;;;;22.90;17.33;;;;;;;10.46;77.08;99279.68;124799;1093;64287;-81
2021/06/15 02:14:22;;;;;;;23.30;16.47;;;;;;;10.42;77.22;99289.65;124761;1093;64305;-82
2021/06/15 02:16:54;;;;;;;18.27;15.90;;;;;;;10.33;76.90;99288.41;124750;1093;64293;-83
2021/06/15 02:19:23;;;;;;;21.40;15.50;;;;;;;10.27;76.87;99278.15;124748;1093;64316;-81
2021/06/15 02:22:13;;;;;;;20.58;15.35;;;;;;;10.20;76.89;99279.43;124824;1093;64268;-82
2021/06/15 02:24:45;;;;;;;19.73;15.80;;;;;;;10.14;76.84;99278.93;124780;1093;64280;-82
2021/06/15 02:27:16;;;;;;;16.80;14.83;;;;;;;10.11;77.31;99283.52;124808;1093;64367;-82
2021/06/15 02:29:45;;;;;;;19.27;15.70;;;;;;;10.08;77.29;99274.83;124850;1093;64227;-80
2021/06/15 02:32:20;;;;;;;19.75;15.75;;;;;;;10.10;77.23;99268.47;124759;1093;64231;-82
2021/06/15 02:34:50;;;;;;;19.75;14.55;;;;;;;10.08;77.37;99272.17;124790;1093;64422;-82
2021/06/15 02:37:23;;;;;;;23.30;17.10;;;;;;;10.08;77.33;99266.84;124804;1093;64268;-81
2021/06/15 02:39:54;;;;;;;21.93;16.67;;;;;;;10.08;77.36;99262.41;124819;1093;64197;-80
2021/06/15 02:42:22;;;;;;;21.80;16.75;;;;;;;10.10;77.41;99271.13;124812;1093;64194;-80
2021/06/15 02:44:53;;;;;;;25.47;17.17;;;;;;;10.10;77.37;99271.13;124781;1093;64354;-81
2021/06/15 02:47:21;;;;;;;23.90;16.90;;;;;;;10.12;77.51;99268.39;124784;1093;64450;-81
2021/06/15 02:49:55;;;;;;;21.10;16.57;;;;;;;10.13;77.37;99259.44;124838;1093;64280;-81
2021/06/15 02:52:36;;;;;;;20.00;15.23;;;;;;;10.13;77.10;99269.23;124768;1093;64290;-81
2021/06/15 02:55:09;;;;;;;19.00;16.10;;;;;;;10.13;77.01;99266.58;124777;1093;64370;-81
2021/06/15 02:57:36;;;;;;;20.40;14.93;;;;;;;10.14;77.07;99273.61;124765;1093;64355;-81
2021/06/15 03:00:08;;;;;;;20.40;15.10;;;;;;;10.15;77.11;99262.02;124818;1093;64313;-81
2021/06/15 03:02:36;;;;;;;20.40;15.67;;;;;;;10.17;77.11;99260.98;124818;1093;64277;-82
2021/06/15 03:05:07;;;;;;;22.60;18.00;;;;;;;10.24;77.14;99264.11;124782;1093;64287;-82
2021/06/15 03:07:35;;;;;;;19.87;16.63;;;;;;;10.24;77.00;99264.98;124726;1093;64198;-82
2021/06/15 03:10:07;;;;;;;21.40;16.67;;;;;;;10.26;76.76;99268.39;124804;1093;64312;-82
2021/06/15 03:12:43;;;;;;;21.60;16.67;;;;;;;10.29;76.88;99273.59;124762;1093;64396;-82
2021/06/15 03:15:14;;;;;;;24.60;17.47;;;;;;;10.36;76.96;99273.20;124823;1093;64313;-84
2021/06/15 03:17:55;;;;;;;24.93;17.63;;;;;;;10.43;77.00;99278.06;124870;1093;64382;-83
2021/06/15 03:20:26;;;;;;;21.03;16.07;;;;;;;10.55;77.04;99276.42;124810;1093;64277;-83
2021/06/15 03:23:19;;;;;;;22.93;17.40;;;;;;;10.67;77.09;99278.34;124810;1093;64217;-82
2021/06/15 03:25:47;;;;;;;21.23;16.77;;;;;;;10.80;76.80;99286.42;124723;1093;64294;-83
2021/06/15 03:28:24;;;;;;;24.35;18.50;;;;;;;11.40;76.34;99282.55;124667;1093;64274;-82
2021/06/15 03:30:54;;;;;;;23.30;18.37;;;;;;;12.94;74.13;99279.07;124766;1093;64226;-81
2021/06/15 03:33:23;;;;;;;21.33;18.70;;;;;;;14.11;72.47;99281.11;124841;1093;64284;-82
2021/06/15 03:35:59;;;;;;;21.50;18.50;;;;;;;15.16;70.94;99281.80;124801;1092;64287;-82
2021/06/15 03:38:32;;;;;;;20.80;17.43;;;;;;;16.11;68.57;99279.28;124773;1093;64294;-81
2021/06/15 03:41:01;;;;;;;19.00;16.55;;;;;;;16.89;67.14;99267.13;124800;1093;64207;-82
2021/06/15 03:43:33;;;;;;;20.77;17.40;;;;;;;17.67;65.86;99269.16;124768;1093;64317;-81
2021/06/15 03:46:11;;;;;;;20.40;16.83;;;;;;;18.35;64.24;99269.97;124798;1093;64226;-82
2021/06/15 03:48:44;;;;;;;21.93;17.60;;;;;;;18.93;63.22;99263.55;124810;1093;64406;-81
2021/06/15 03:51:16;;;;;;;18.57;16.63;;;;;;;19.51;61.94;99265.91;124795;1093;64370;-82
2021/06/15 03:53:46;;;;;;;18.13;16.23;;;;;;;20.12;60.43;99252.62;124729;1093;64290;-81
2021/06/15 03:56:14;;;;;;;18.35;16.45;;;;;;;20.66;59.33;99247.91;124815;1093;64725;-81
2021/06/15 03:58:44;;;;;;;20.73;18.53;;;;;;;21.23;58.91;99252.73;124826;1093;64296;-80
2021/06/15 04:01:14;;;;;;;20.20;16.70;;;;;;;21.74;57.26;99239.13;124824;1093;64226;-80
2021/06/15 04:03:44;;;;;;;15.83;14.27;;;;;;;22.11;55.90;99241.33;124749;1093;64271;-80
2021/06/15 04:06:12;;;;;;;;;;;;;;;22.45;54.67;99240.31;124830;1093;64290;-80
2021/06/15 04:08:40;;;;;;;14.57;13.13;;;;;;;22.72;54.34;99247.19;124762;1092;64300;-81
2021/06/15 04:11:11;;;;;;;14.97;13.47;;;;;;;23.15;53.49;99239.59;124764;1093;64410;-80
2021/06/15 04:13:41;;;;;;;15.70;13.00;;;;;;;23.49;52.36;99235.67;124781;1093;64297;-82
2021/06/15 04:16:12;;;;;;;14.40;12.90;;;;;;;23.62;51.69;99241.36;124775;1093;64405;-81
2021/06/15 04:18:43;;;;;;;13.25;11.85;;;;;;;23.70;51.14;99244.02;124763;1093;64293;-81
2021/06/15 04:21:13;;;;;;;13.37;12.07;;;;;;;23.71;50.69;99237.55;124807;1093;64287;-81
2021/06/15 04:23:54;;;;;;;13.30;11.77;;;;;;;23.94;49.92;99231.29;124698;1092;64248;-79
2021/06/15 04:26:22;;;;;;;12.87;11.53;;;;;;;24.13;48.89;99233.48;124745;1093;64437;-80
2021/06/15 04:28:49;;;;;;;12.83;11.20;;;;;;;24.26;49.08;99232.86;124783;1093;64418;-80
2021/06/15 04:31:20;;;;;;;12.20;10.97;;;;;;;24.39;48.35;99232.23;124764;1093;64294;-81
2021/06/15 04:33:49;;;;;;;12.67;11.30;;;;;;;24.57;47.75;99238.20;124765;1093;64191;-81
2021/06/15 04:36:19;;;;;;;11.90;10.67;;;;;;;24.78;46.96;99234.73;124779;1093;64260;-80
2021/06/15 04:38:55;;;;;;;15.00;11.45;;;;;;;24.97;46.58;99239.59;124795;1093;64367;-81
2021/06/15 04:41:33;;;;;;;13.53;10.97;;;;;;;25.21;46.16;99242.23;124714;1092;64290;-80
2021/06/15 04:44:09;;;;;;;12.90;11.60;;;;;;;25.48;45.88;99232.47;124770;1093;64310;-81
2021/06/15 04:46:48;;;;;;;12.83;10.47;;;;;;;25.50;44.71;99233.97;124768;1093;64217;-80
2021/06/15 04:49:32;;;;;;;12.37;11.07;;;;;;;25.40;44.48;99233.43;124701;1093;64223;-80
2021/06/15 04:52:02;;;;;;;11.70;10.60;;;;;;;25.51;44.09;99230.19;124772;1093;64268;-80
2021/06/15 04:54:39;;;;;;;11.93;10.70;;;;;;;25.68;43.93;99238.99;124833;1093;64271;-80
2021/06/15 04:57:10;;;;;;;10.93;9.83;;;;;;;25.73;43.15;99239.26;124769;1093;64360;-80
2021/06/15 04:59:42;;;;;;;11.65;9.35;;;;;;;25.66;43.02;99246.52;124788;1093;64276;-81
2021/06/15 05:02:11;;;;;;;10.63;9.57;;;;;;;25.63;43.00;99253.22;124833;1093;64280;-80
2021/06/15 05:04:40;;;;;;;12.13;9.43;;;;;;;25.67;42.81;99258.28;124823;1092;64693;-81
2021/06/15 05:07:08;;;;;;;10.35;9.13;;;;;;;25.69;42.33;99257.05;124824;1093;64276;-80
2021/06/15 05:09:36;;;;;;;10.30;9.30;;;;;;;25.70;42.41;99258.76;124797;1093;64267;-81
2021/06/15 05:12:05;;;;;;;11.00;9.60;;;;;;;25.98;42.35;99261.57;124857;1093;64188;-82
2021/06/15 05:14:34;;;;;;;11.25;10.10;;;;;;;26.16;42.18;99263.00;124742;1093;64302;-83
2021/06/15 05:17:07;;;;;;;10.90;9.80;;;;;;;26.38;41.58;99258.34;124844;1092;64239;-81
2021/06/15 05:19:38;;;;;;;14.13;10.87;;;;;;;26.46;41.11;99255.45;124804;1093;64420;-80
2021/06/15 05:22:15;;;;;;;11.47;9.77;;;;;;;26.51;41.16;99261.17;124823;1093;64284;-82
2021/06/15 05:24:54;;;;;;;10.60;9.20;;;;;;;26.59;40.45;99271.98;124782;1093;64274;-80
2021/06/15 05:27:26;;;;;;;11.63;10.38;;;;;;;26.45;40.21;99260.08;124799;1093;64244;-81
2021/06/15 05:29:53;;;;;;;13.87;10.13;;;;;;;26.53;40.58;99275.52;124742;1093;64194;-80
2021/06/15 05:32:21;;;;;;;12.50;11.20;;;;;;;26.52;39.98;99273.84;124742;1093;65470;-80
2021/06/15 05:34:49;;;;;;;21.93;11.23;;;;;;;26.70;40.39;99276.92;124725;1093;64153;-80
2021/06/15 05:37:18;;;;;;;12.03;9.80;;;;;;;26.88;39.40;99275.53;124794;1093;64195;-80
2021/06/15 05:39:48;;;;;;;11.25;9.60;;;;;;;26.90;39.37;99285.23;124729;1093;64271;-80
2021/06/15 05:42:17;;;;;;;12.33;10.60;;;;;;;26.84;38.94;99272.38;124740;1093;64274;-80
2021/06/15 05:44:44;;;;;;;13.70;10.60;;;;;;;26.89;38.68;99283.55;124770;1093;64310;-80
2021/06/15 05:47:11;;;;;;;11.80;10.50;;;;;;;26.84;38.70;99291.52;124715;1093;64357;-80
2021/06/15 05:49:40;;;;;;;13.07;11.37;;;;;;;26.77;38.87;99285.15;124719;1093;64321;-81
2021/06/15 05:52:10;;;;;;;15.33;11.73;;;;;;;26.67;38.47;99285.52;124799;1093;64268;-81
2021/06/15 05:54:38;;;;;;;13.77;12.47;;;;;;;26.55;39.47;99292.58;124757;1093;64159;-81
2021/06/15 05:57:06;;;;;;;14.83;11.63;;;;;;;26.39;39.22;99295.58;124753;1093;64363;-81
2021/06/15 05:59:34;;;;;;;14.70;12.33;;;;;;;26.32;39.60;99291.93;124766;1093;64332;-81
2021/06/15 06:02:01;;;;;;;13.15;11.60;;;;;;;26.48;39.68;99288.91;124774;1093;64229;-81
2021/06/15 06:04:33;;;;;;;12.93;11.67;;;;;;;26.62;38.92;99296.22;124778;1093;64242;-81
2021/06/15 06:09:47;;;;;;;22.73;13.27;;;;;;;26.78;38.84;99288.72;124759;1093;64369;-80
2021/06/15 06:12:15;;;;;;;17.00;12.23;;;;;;;26.78;38.84;99296.92;124735;1093;64377;-81
2021/06/15 06:14:43;;;;;;;13.73;12.27;;;;;;;26.98;38.96;99297.91;124834;1093;64367;-81
2021/06/15 06:17:11;;;;;;;14.23;12.23;;;;;;;26.93;38.78;99295.77;124773;1093;64275;-81
2021/06/15 06:19:39;;;;;;;13.90;10.90;;;;;;;26.79;38.79;99287.70;124699;1093;64386;-80
2021/06/15 06:22:06;;;;;;;13.30;11.30;;;;;;;26.79;38.58;99304.94;124729;1093;64341;-79
2021/06/15 06:24:33;;;;;;;13.37;11.60;;;;;;;26.72;38.62;99304.05;124697;1093;64230;-80
2021/06/15 06:27:01;;;;;;;14.00;11.57;;;;;;;27.02;39.01;99307.41;124849;1093;64266;-80
2021/06/15 06:29:28;;;;;;;13.60;11.37;;;;;;;27.10;38.94;99311.88;124747;1093;64325;-80
2021/06/15 06:31:55;;;;;;;13.20;11.15;;;;;;;27.03;38.31;99306.35;124745;1093;64310;-80
2021/06/15 06:34:23;;;;;;;12.73;10.20;;;;;;;27.03;38.73;99302.78;124770;1093;64367;-81
2021/06/15 06:36:51;;;;;;;12.60;11.30;;;;;;;27.12;39.13;99304.29;124753;1093;64268;-81
2021/06/15 06:39:18;;;;;;;13.50;11.27;;;;;;;27.08;39.05;99301.13;124809;1093;64282;-80
2021/06/15 06:41:46;;;;;;;12.87;10.73;;;;;;;27.25;38.85;99293.47;124756;1093;64361;-80
2021/06/15 06:44:13;;;;;;;14.47;10.70;;;;;;;27.46;38.52;99297.11;124735;1093;64276;-80
2021/06/15 06:46:41;;;;;;;12.93;10.87;;;;;;;27.57;38.52;99299.28;124738;1093;64402;-80
2021/06/15 06:49:09;;;;;;;11.30;9.90;;;;;;;27.57;38.73;99294.65;124726;1093;64294;-80
2021/06/15 06:51:36;;;;;;;13.03;10.40;;;;;;;27.62;38.11;99290.43;124763;1092;64191;-80
2021/06/15 06:54:04;;;;;;;11.85;10.65;;;;;;;27.61;37.53;99296.97;124777;1093;64191;-80
2021/06/15 06:56:32;;;;;;;11.45;10.30;;;;;;;27.38;37.96;99292.66;124712;1093;64271;-80
2021/06/15 06:58:59;;;;;;;12.37;11.13;;;;;;;27.41;38.47;99294.14;124740;1093;64457;-80
2021/06/15 07:01:28;;;;;;;17.80;12.67;;;;;;;27.42;37.74;99293.11;124753;1093;64248;-80
2021/06/15 07:03:55;;;;;;;13.95;10.85;;;;;;;27.28;37.64;99292.22;124756;1093;64191;-79
2021/06/15 07:06:22;;;;;;;12.07;10.43;;;;;;;27.48;37.83;99289.55;124733;1093;64248;-80
2021/06/15 07:08:52;;;;;;;16.10;10.80;;;;;;;27.68;38.37;99284.98;124836;1093;64268;-80
2021/06/15 07:11:20;;;;;;;13.73;10.87;;;;;;;27.74;37.72;99280.58;124815;1093;64367;-80
2021/06/15 07:13:48;;;;;;;12.10;10.10;;;;;;;27.65;37.87;99277.19;124809;1093;64287;-80
2021/06/15 07:16:16;;;;;;;11.83;8.83;;;;;;;27.62;37.33;99276.74;124735;1093;64283;-81
2021/06/15 07:18:43;;;;;;;10.40;9.20;;;;;;;27.51;38.07;99287.23;124792;1093;64245;-81
2021/06/15 07:21:11;;;;;;;14.07;10.50;;;;;;;27.52;37.39;99288.10;124750;1093;64272;-81
2021/06/15 07:23:40;;;;;;;12.57;11.20;;;;;;;27.58;37.14;99281.80;124756;1093;64382;-81
2021/06/15 07:26:08;;;;;;;;;;;;;;;27.52;37.05;99279.89;124801;1093;64284;-80
2021/06/15 07:28:36;;;;;;;11.57;8.47;;;;;;;27.29;36.95;99282.95;124782;1093;64306;-80
2021/06/15 07:31:04;;;;;;;11.50;9.10;;;;;;;27.08;36.71;99284.70;124791;1093;64756;-80
2021/06/15 07:33:31;;;;;;;10.77;8.50;;;;;;;26.48;36.83;99281.55;124744;1093;64349;-81
2021/06/15 07:35:58;;;;;;;9.80;8.73;;;;;;;26.03;37.61;99283.69;124782;1093;64772;-80
2021/06/15 07:38:26;;;;;;;10.70;9.45;;;;;;;25.81;38.35;99279.23;124734;1093;64273;-80
2021/06/15 07:40:54;;;;;;;17.37;9.13;;;;;;;25.57;38.63;99283.19;124739;1093;64271;-82
2021/06/15 07:43:25;;;;;;;11.27;9.70;;;;;;;25.42;39.42;99282.37;124751;1092;64303;-81
2021/06/15 07:45:52;;;;;;;10.57;9.20;;;;;;;25.10;39.23;99270.81;124768;1093;64319;-80
2021/06/15 07:48:19;;;;;;;12.90;9.37;;;;;;;24.82;39.77;99282.38;124735;1093;64328;-81
2021/06/15 07:50:47;;;;;;;14.57;8.93;;;;;;;24.51;39.62;99271.63;124813;1093;64290;-81
2021/06/15 07:53:16;;;;;;;11.33;8.80;;;;;;;24.36;40.21;99277.03;124761;1092;64268;-81
2021/06/15 07:55:44;;;;;;;;;;;;;;;24.23;40.75;99282.27;124850;1093;64320;-80
2021/06/15 07:58:13;;;;;;;10.37;9.17;;;;;;;24.24;41.00;99281.22;124762;1093;64254;-80
2021/06/15 08:00:42;;;;;;;10.97;8.40;;;;;;;24.30;41.71;99283.20;124777;1093;64409;-81
2021/06/15 08:03:09;;;;;;;11.73;8.23;;;;;;;24.39;42.59;99279.39;124775;1093;64268;-80
2021/06/15 08:05:37;;;;;;;10.33;7.97;;;;;;;24.48;42.17;99280.17;124766;1093;64290;-80
2021/06/15 08:08:04;;;;;;;11.30;8.63;;;;;;;24.30;41.48;99269.58;124756;1093;64312;-80
2021/06/15 08:10:32;;;;;;;13.90;8.43;;;;;;;24.12;41.83;99275.38;124752;1093;64281;-81
2021/06/15 08:13:01;;;;;;;11.87;8.77;;;;;;;23.93;41.27;99275.86;124706;1093;64271;-81
2021/06/15 08:15:29;;;;;;;11.55;7.85;;;;;;;23.70;41.80;99281.25;124800;1093;64383;-81
2021/06/15 08:17:56;;;;;;;15.00;9.07;;;;;;;23.71;42.37;99277.52;124809;1093;64587;-81
2021/06/15 08:20:24;;;;;;;12.35;7.50;;;;;;;23.79;42.41;99274.77;124774;1093;64393;-80
2021/06/15 08:22:52;;;;;;;8.63;6.57;;;;;;;23.93;41.67;99276.70;124742;1093;64367;-81
2021/06/15 08:25:19;;;;;;;9.27;6.83;;;;;;;24.04;42.54;99281.73;124767;1093;64352;-80
2021/06/15 08:27:46;;;;;;;9.23;6.20;;;;;;;24.17;41.80;99281.13;124729;1093;64348;-80
2021/06/15 08:30:15;;;;;;;7.07;4.93;;;;;;;24.24;42.17;99290.23;124732;1093;64219;-81
2021/06/15 08:32:42;;;;;;;8.70;5.30;;;;;;;24.30;41.70;99275.03;124741;1093;64248;-81
2021/06/15 08:35:10;;;;;;;5.53;4.93;;;;;;;24.43;42.43;99272.52;124715;1093;64550;-80
2021/06/15 08:37:40;;;;;;;6.70;5.27;;;;;;;24.49;41.42;99281.89;124753;1093;64297;-81
2021/06/15 08:40:08;;;;;;;9.20;6.20;;;;;;;24.42;42.11;99278.17;124778;1093;64278;-80
2021/06/15 08:42:38;;;;;;;6.57;5.17;;;;;;;24.42;40.37;99272.72;124765;1093;64269;-80
2021/06/15 08:45:09;;;;;;;5.53;4.88;;;;;;;24.28;40.88;99268.95;124779;1093;64200;-81
2021/06/15 08:47:41;;;;;;;8.30;5.07;;;;;;;24.46;41.51;99272.20;124756;1092;64378;-80
2021/06/15 08:50:11;;;;;;;4.90;4.20;;;;;;;24.63;40.72;99274.76;124779;1092;64297;-81
2021/06/15 08:52:38;;;;;;;7.20;4.20;;;;;;;24.71;40.81;99263.77;124780;1093;64377;-81
2021/06/15 08:55:07;;;;;;;9.67;4.37;;;;;;;24.78;40.39;99264.72;124750;1093;64275;-81
2021/06/15 08:57:39;;;;;;;4.77;3.70;;;;;;;24.89;40.58;99258.78;124741;1093;64377;-81
2021/06/15 09:00:11;;;;;;;4.37;3.97;;;;;;;24.95;40.21;99255.30;124711;1092;64317;-81
2021/06/15 09:02:44;;;;;;;7.00;3.80;;;;;;;25.08;40.15;99251.90;124748;1093;64434;-81
2021/06/15 09:05:18;;;;;;;5.80;3.60;;;;;;;25.23;39.85;99251.08;124769;1093;64338;-83
2021/06/15 09:08:13;;;;;;;4.77;3.73;;;;;;;25.29;39.20;99247.58;124738;1092;64213;-81
2021/06/15 09:10:44;;;;;;;3.60;3.07;;;;;;;25.24;39.67;99253.59;124722;1093;64758;-81
2021/06/15 09:13:34;;;;;;;4.47;3.70;;;;;;;25.31;39.45;99250.97;124672;1093;64260;-82
2021/06/15 09:16:26;;;;;;;4.67;3.30;;;;;;;25.39;39.78;99245.39;124781;1093;64373;-81
2021/06/15 09:18:57;;;;;;;4.40;3.17;;;;;;;25.60;39.32;99236.39;124750;1093;64271;-81
2021/06/15 09:21:30;;;;;;;3.20;2.90;;;;;;;25.62;38.01;99246.08;124808;1093;64287;-81
2021/06/15 09:24:25;;;;;;;5.25;3.00;;;;;;;25.60;38.67;99244.58;124771;1093;64290;-81
2021/06/15 09:27:12;;;;;;;3.65;2.50;;;;;;;25.47;38.16;99247.16;124739;1093;64354;-81
2021/06/15 09:29:39;;;;;;;3.70;2.87;;;;;;;25.44;38.65;99242.09;124782;1093;64322;-83
2021/06/15 09:32:16;;;;;;;5.80;2.63;;;;;;;25.44;38.71;99247.55;124732;1093;64274;-80
2021/06/15 09:34:57;;;;;;;4.50;3.00;;;;;;;25.48;37.50;99227.02;124814;1092;64249;-81
2021/06/15 09:37:41;;;;;;;4.83;3.07;;;;;;;25.39;38.26;99242.66;124795;1093;64371;-81
2021/06/15 09:40:24;;;;;;;4.13;2.90;;;;;;;25.44;38.45;99233.91;124790;1093;64300;-83
2021/06/15 09:42:55;;;;;;;5.33;2.90;;;;;;;25.51;37.97;99234.81;124853;1093;64501;-82
2021/06/15 09:45:26;;;;;;;2.80;2.53;;;;;;;25.58;37.94;99236.58;124880;1092;64267;-82
2021/06/15 09:48:14;;;;;;;3.60;2.50;;;;;;;25.71;38.22;99238.59;124823;1093;64361;-81
2021/06/15 09:50:43;;;;;;;4.20;3.20;;;;;;;25.92;37.70;99235.05;124758;1092;64231;-82
2021/06/15 09:53:33;;;;;;;3.93;3.53;;;;;;;25.90;37.02;99239.02;124797;1093;64287;-81
2021/06/15 09:56:04;;;;;;;4.10;2.60;;;;;;;25.78;36.80;99236.80;124834;1093;64276;-81
2021/06/15 09:58:47;;;;;;;3.23;2.67;;;;;;;25.93;37.25;99244.92;124789;1093;64365;-80
2021/06/15 10:01:38;;;;;;;4.50;2.60;;;;;;;26.10;37.52;99236.48;124863;1093;64268;-80
2021/06/15 10:04:12;;;;;;;4.67;3.33;;;;;;;26.26;37.36;99238.92;124775;1093;64261;-81
2021/06/15 10:06:48;;;;;;;5.85;2.70;;;;;;;26.39;37.08;99240.92;124744;1092;64438;-81
2021/06/15 10:09:35;;;;;;;3.53;2.27;;;;;;;26.44;37.27;99239.27;124750;1093;64245;-81
2021/06/15 10:12:08;;;;;;;3.03;2.60;;;;;;;26.56;36.40;99231.38;124745;1093;64271;-80
2021/06/15 10:14:38;;;;;;;3.85;2.70;;;;;;;26.65;36.61;99234.83;124734;1093;64271;-81
2021/06/15 10:17:06;;;;;;;3.08;2.75;;;;;;;26.78;36.62;99226.70;124745;1093;64290;-81
2021/06/15 10:19:33;;;;;;;3.50;2.57;;;;;;;26.86;35.21;99233.89;124751;1093;64347;-81
2021/06/15 10:22:01;;;;;;;3.83;2.73;;;;;;;26.71;35.44;99223.91;124778;1093;64418;-80
2021/06/15 10:24:29;;;;;;;4.03;2.87;;;;;;;26.76;35.33;99220.58;124834;1093;64252;-80
2021/06/15 10:26:56;;;;;;;2.40;2.20;;;;;;;26.86;34.57;99228.42;124747;1093;64300;-80
2021/06/15 10:29:25;;;;;;;3.23;2.87;;;;;;;26.81;34.43;99214.52;124747;1093;64293;-81
2021/06/15 10:31:56;;;;;;;5.05;2.85;;;;;;;26.99;35.29;99219.41;124772;1093;64375;-80
2021/06/15 10:34:56;;;;;;;3.47;2.67;;;;;;;27.17;34.58;99216.13;124846;1093;64159;-80
2021/06/15 10:37:36;;;;;;;5.70;2.40;;;;;;;27.36;34.70;99212.67;124807;1093;64350;-81
2021/06/15 10:40:13;;;;;;;3.40;2.55;;;;;;;27.48;33.71;99208.27;124805;1093;65915;-80
2021/06/15 10:43:02;;;;;;;4.63;2.50;;;;;;;27.54;33.36;99203.84;124814;1093;64298;-81
2021/06/15 10:45:30;;;;;;;3.87;2.63;;;;;;;27.61;32.78;99199.23;124749;1093;64312;-80
2021/06/15 10:48:06;;;;;;;156.87;13.63;;;;;;;27.66;33.17;99190.41;124794;1093;64268;-81
2021/06/15 10:50:44;;;;;;;7.33;3.17;;;;;;;27.79;32.63;99202.20;124739;1093;64290;-80
2021/06/15 10:53:12;;;;;;;2.63;2.40;;;;;;;27.82;31.97;99191.93;124738;1093;64195;-82
2021/06/15 10:55:53;;;;;;;6.75;2.75;;;;;;;27.81;32.64;99195.73;124796;1093;64310;-80
2021/06/15 10:58:33;;;;;;;3.60;2.00;;;;;;;27.71;31.39;99188.72;124757;1093;64282;-80
2021/06/15 11:01:21;;;;;;;60.93;7.67;;;;;;;27.61;31.16;99185.55;124729;1093;64223;-80
2021/06/15 11:03:50;;;;;;;5.40;3.17;;;;;;;27.70;31.62;99186.18;124741;1092;64206;-80
2021/06/15 11:06:42;;;;;;;8.97;2.47;;;;;;;27.63;32.09;99183.45;124756;1092;64312;-81
2021/06/15 11:09:15;;;;;;;5.53;2.73;;;;;;;27.63;32.32;99169.76;124756;1093;64184;-81
2021/06/15 11:12:10;;;;;;;4.03;2.30;;;;;;;27.80;32.64;99175.66;124762;1093;64428;-80
2021/06/15 11:14:38;;;;;;;4.67;2.73;;;;;;;27.78;31.72;99175.89;124770;1093;64367;-80
2021/06/15 11:17:08;;;;;;;3.47;2.40;;;;;;;27.68;31.34;99166.40;124731;1093;64306;-79
2021/06/15 11:19:40;;;;;;;4.20;2.17;;;;;;;27.69;31.22;99168.08;124837;1093;64274;-79
2021/06/15 11:22:07;;;;;;;3.63;2.17;;;;;;;27.70;30.92;99165.14;124737;1093;64380;-80
2021/06/15 11:24:44;;;;;;;3.23;2.50;;;;;;;27.65;31.47;99158.58;124746;1093;64294;-80
2021/06/15 11:27:21;;;;;;;2.30;2.10;;;;;;;27.70;31.88;99156.92;124799;1093;64727;-80
2021/06/15 11:29:52;;;;;;;4.07;2.50;;;;;;;27.87;32.02;99162.02;124754;1093;64386;-81
2021/06/15 11:32:24;;;;;;;3.27;2.67;;;;;;;28.15;31.57;99159.06;124860;1092;64294;-81
2021/06/15 11:35:04;;;;;;;2.60;2.20;;;;;;;28.36;31.69;99157.97;124789;1093;64195;-80
2021/06/15 11:37:37;;;;;;;3.77;2.40;;;;;;;28.42;30.77;99146.98;124764;1093;64342;-81
2021/06/15 11:40:30;;;;;;;2.63;2.20;;;;;;;28.53;31.65;99137.27;124761;1093;64322;-83
2021/06/15 11:43:19;;;;;;;3.03;2.43;;;;;;;28.82;31.44;99137.81;124784;1093;64316;-80